sensor_id;sensor_type;location;lat;lon;timestamp;temperature;humidity
49465;DHT22;35358;49.342;8.802;2022-09-03T00:01:04;17.50;99.90
49465;DHT22;35358;49.342;8.802;2022-09-03T00:03:41;17.50;99.90
49465;DHT22;35358;49.342;8.802;2022-09-03T00:08:45;17.60;99.90
49465;DHT22;35358;49.342;8.802;2022-09-03T00:11:21;17.70;99.90
49465;DHT22;35358;49.342;8.802;2022-09-03T00:16:27;17.70;99.90
49465;DHT22;35358;49.342;8.802;2022-09-03T00:19:00;17.70;99.90
49465;DHT22;35358;49.342;8.802;2022-09-03T00:21:40;17.80;99.90
49465;DHT22;35358;49.342;8.802;2022-09-03T00:24:15;17.80;99.90
49465;DHT22;35358;49.342;8.802;2022-09-03T00:26:47;17.80;99.90
49465;DHT22;35358;49.342;8.802;2022-09-03T00:29:20;17.80;99.90
49465;DHT22;35358;49.342;8.802;2022-09-03T00:31:53;17.80;99.90
49465;DHT22;35358;49.342;8.802;2022-09-03T00:34:34;17.80;99.90
49465;DHT22;35358;49.342;8.802;2022-09-03T00:37:02;17.80;99.90
49465;DHT22;35358;49.342;8.802;2022-09-03T00:39:28;17.90;99.90
49465;DHT22;35358;49.342;8.802;2022-09-03T01:00:22;18.00;99.90
49465;DHT22;35358;49.342;8.802;2022-09-03T01:05:49;17.90;99.90
49465;DHT22;35358;49.342;8.802;2022-09-03T01:13:49;17.80;99.90
49465;DHT22;35358;49.342;8.802;2022-09-03T01:30:17;17.80;99.90
49465;DHT22;35358;49.342;8.802;2022-09-03T01:41:20;17.80;99.90
49465;DHT22;35358;49.342;8.802;2022-09-03T01:44:21;17.90;99.90
49465;DHT22;35358;49.342;8.802;2022-09-03T01:47:52;17.90;99.90
49465;DHT22;35358;49.342;8.802;2022-09-03T01:50:19;17.90;99.90
49465;DHT22;35358;49.342;8.802;2022-09-03T01:52:55;18.00;99.90
49465;DHT22;35358;49.342;8.802;2022-09-03T01:58:13;17.90;99.90
49465;DHT22;35358;49.342;8.802;2022-09-03T02:00:42;17.90;99.90
49465;DHT22;35358;49.342;8.802;2022-09-03T02:03:12;17.90;99.90
49465;DHT22;35358;49.342;8.802;2022-09-03T02:05:38;17.90;99.90
49465;DHT22;35358;49.342;8.802;2022-09-03T02:08:09;17.90;99.90
49465;DHT22;35358;49.342;8.802;2022-09-03T02:10:52;17.80;99.90
49465;DHT22;35358;49.342;8.802;2022-09-03T02:15:58;17.90;99.90
49465;DHT22;35358;49.342;8.802;2022-09-03T02:18:32;17.90;99.90
49465;DHT22;35358;49.342;8.802;2022-09-03T02:21:00;17.90;99.90
49465;DHT22;35358;49.342;8.802;2022-09-03T02:23:29;17.90;99.90
49465;DHT22;35358;49.342;8.802;2022-09-03T02:25:57;17.90;99.90
49465;DHT22;35358;49.342;8.802;2022-09-03T02:28:25;17.80;99.90
49465;DHT22;35358;49.342;8.802;2022-09-03T02:30:55;17.80;99.90
49465;DHT22;35358;49.342;8.802;2022-09-03T02:33:24;17.80;99.90
49465;DHT22;35358;49.342;8.802;2022-09-03T02:35:50;17.80;99.90
49465;DHT22;35358;49.342;8.802;2022-09-03T02:38:23;17.80;99.90
49465;DHT22;35358;49.342;8.802;2022-09-03T02:40:51;17.80;99.90
49465;DHT22;35358;49.342;8.802;2022-09-03T02:46:11;17.80;99.90
49465;DHT22;35358;49.342;8.802;2022-09-03T02:48:40;17.80;99.90
49465;DHT22;35358;49.342;8.802;2022-09-03T02:51:11;17.70;99.90
49465;DHT22;35358;49.342;8.802;2022-09-03T02:53:36;17.70;99.90
49465;DHT22;35358;49.342;8.802;2022-09-03T02:56:05;17.60;99.90
49465;DHT22;35358;49.342;8.802;2022-09-03T02:58:30;17.60;99.90
49465;DHT22;35358;49.342;8.802;2022-09-03T03:00:57;17.50;99.90
49465;DHT22;35358;49.342;8.802;2022-09-03T03:03:25;17.50;99.90
49465;DHT22;35358;49.342;8.802;2022-09-03T03:05:54;17.50;99.90
49465;DHT22;35358;49.342;8.802;2022-09-03T03:08:23;17.40;99.90
49465;DHT22;35358;49.342;8.802;2022-09-03T03:10:55;17.30;99.90
49465;DHT22;35358;49.342;8.802;2022-09-03T03:13:23;17.30;99.90
49465;DHT22;35358;49.342;8.802;2022-09-03T03:15:50;17.30;99.90
49465;DHT22;35358;49.342;8.802;2022-09-03T03:18:18;17.30;99.90
49465;DHT22;35358;49.342;8.802;2022-09-03T03:20:45;17.30;99.90
49465;DHT22;35358;49.342;8.802;2022-09-03T03:23:12;17.30;99.90
49465;DHT22;35358;49.342;8.802;2022-09-03T03:25:39;17.30;99.90
49465;DHT22;35358;49.342;8.802;2022-09-03T03:28:05;17.30;99.90
49465;DHT22;35358;49.342;8.802;2022-09-03T03:30:36;17.40;99.90
49465;DHT22;35358;49.342;8.802;2022-09-03T03:33:03;17.40;99.90
49465;DHT22;35358;49.342;8.802;2022-09-03T03:35:29;17.40;99.90
49465;DHT22;35358;49.342;8.802;2022-09-03T03:37:59;17.40;99.90
49465;DHT22;35358;49.342;8.802;2022-09-03T03:40:25;17.40;99.90
49465;DHT22;35358;49.342;8.802;2022-09-03T03:42:53;17.30;99.90
49465;DHT22;35358;49.342;8.802;2022-09-03T03:45:21;17.30;99.90
49465;DHT22;35358;49.342;8.802;2022-09-03T03:47:55;17.30;99.90
49465;DHT22;35358;49.342;8.802;2022-09-03T03:50:23;17.30;99.90
49465;DHT22;35358;49.342;8.802;2022-09-03T03:52:49;17.20;99.90
49465;DHT22;35358;49.342;8.802;2022-09-03T03:55:17;17.20;99.90
49465;DHT22;35358;49.342;8.802;2022-09-03T03:57:44;17.20;99.90
49465;DHT22;35358;49.342;8.802;2022-09-03T04:00:10;17.20;99.90
49465;DHT22;35358;49.342;8.802;2022-09-03T04:02:39;17.20;99.90
49465;DHT22;35358;49.342;8.802;2022-09-03T04:05:04;17.20;99.90
49465;DHT22;35358;49.342;8.802;2022-09-03T04:07:33;17.20;99.90
49465;DHT22;35358;49.342;8.802;2022-09-03T04:09:58;17.00;99.90
49465;DHT22;35358;49.342;8.802;2022-09-03T04:12:28;17.00;99.90
49465;DHT22;35358;49.342;8.802;2022-09-03T04:14:53;17.00;99.90
49465;DHT22;35358;49.342;8.802;2022-09-03T04:17:19;17.00;99.90
49465;DHT22;35358;49.342;8.802;2022-09-03T04:19:47;17.10;99.90
49465;DHT22;35358;49.342;8.802;2022-09-03T04:22:15;17.10;99.90
49465;DHT22;35358;49.342;8.802;2022-09-03T04:24:40;17.20;99.90
49465;DHT22;35358;49.342;8.802;2022-09-03T04:27:06;17.20;99.90
49465;DHT22;35358;49.342;8.802;2022-09-03T04:29:31;17.20;99.90
49465;DHT22;35358;49.342;8.802;2022-09-03T04:31:59;17.10;99.90
49465;DHT22;35358;49.342;8.802;2022-09-03T04:34:48;17.10;99.90
49465;DHT22;35358;49.342;8.802;2022-09-03T04:37:14;17.00;99.90
49465;DHT22;35358;49.342;8.802;2022-09-03T04:39:40;16.90;99.90
49465;DHT22;35358;49.342;8.802;2022-09-03T04:42:08;16.90;99.90
49465;DHT22;35358;49.342;8.802;2022-09-03T04:44:34;16.90;99.90
49465;DHT22;35358;49.342;8.802;2022-09-03T04:47:05;16.80;99.90
49465;DHT22;35358;49.342;8.802;2022-09-03T04:49:33;16.90;99.90
49465;DHT22;35358;49.342;8.802;2022-09-03T04:51:59;16.90;99.90
49465;DHT22;35358;49.342;8.802;2022-09-03T04:54:24;16.90;99.90
49465;DHT22;35358;49.342;8.802;2022-09-03T04:56:50;16.90;99.90
49465;DHT22;35358;49.342;8.802;2022-09-03T04:59:18;16.90;99.90
49465;DHT22;35358;49.342;8.802;2022-09-03T05:01:46;16.80;99.90
49465;DHT22;35358;49.342;8.802;2022-09-03T05:04:12;16.70;99.90
49465;DHT22;35358;49.342;8.802;2022-09-03T05:06:37;16.70;99.90
49465;DHT22;35358;49.342;8.802;2022-09-03T05:09:10;16.70;99.90
49465;DHT22;35358;49.342;8.802;2022-09-03T05:11:37;16.60;99.90
49465;DHT22;35358;49.342;8.802;2022-09-03T05:14:05;16.40;99.90
49465;DHT22;35358;49.342;8.802;2022-09-03T05:16:36;16.30;99.90
49465;DHT22;35358;49.342;8.802;2022-09-03T05:19:01;16.30;99.90
49465;DHT22;35358;49.342;8.802;2022-09-03T05:21:28;16.20;99.90
49465;DHT22;35358;49.342;8.802;2022-09-03T05:23:54;16.20;99.90
49465;DHT22;35358;49.342;8.802;2022-09-03T05:26:27;16.00;99.90
49465;DHT22;35358;49.342;8.802;2022-09-03T05:28:58;15.90;99.90
49465;DHT22;35358;49.342;8.802;2022-09-03T05:31:26;16.00;99.90
49465;DHT22;35358;49.342;8.802;2022-09-03T05:33:54;16.10;99.90
49465;DHT22;35358;49.342;8.802;2022-09-03T05:36:24;16.00;99.90
49465;DHT22;35358;49.342;8.802;2022-09-03T05:38:50;16.10;99.90
49465;DHT22;35358;49.342;8.802;2022-09-03T05:41:22;16.00;99.90
49465;DHT22;35358;49.342;8.802;2022-09-03T05:43:54;15.90;99.90
49465;DHT22;35358;49.342;8.802;2022-09-03T05:46:22;15.90;99.90
49465;DHT22;35358;49.342;8.802;2022-09-03T05:48:52;16.00;99.90
49465;DHT22;35358;49.342;8.802;2022-09-03T05:51:19;15.80;99.90
49465;DHT22;35358;49.342;8.802;2022-09-03T05:53:46;15.60;99.90
49465;DHT22;35358;49.342;8.802;2022-09-03T05:56:14;15.30;99.90
49465;DHT22;35358;49.342;8.802;2022-09-03T05:58:49;15.30;99.90
49465;DHT22;35358;49.342;8.802;2022-09-03T06:01:27;15.30;99.90
49465;DHT22;35358;49.342;8.802;2022-09-03T06:04:04;15.40;99.90
49465;DHT22;35358;49.342;8.802;2022-09-03T06:06:34;15.40;99.90
49465;DHT22;35358;49.342;8.802;2022-09-03T06:09:03;15.40;99.90
49465;DHT22;35358;49.342;8.802;2022-09-03T06:11:31;15.50;99.90
49465;DHT22;35358;49.342;8.802;2022-09-03T06:14:01;15.50;99.90
49465;DHT22;35358;49.342;8.802;2022-09-03T06:16:31;15.60;99.90
49465;DHT22;35358;49.342;8.802;2022-09-03T06:19:00;15.50;99.90
49465;DHT22;35358;49.342;8.802;2022-09-03T06:21:26;15.50;99.90
49465;DHT22;35358;49.342;8.802;2022-09-03T06:23:55;15.40;99.90
49465;DHT22;35358;49.342;8.802;2022-09-03T06:26:23;15.40;99.90
49465;DHT22;35358;49.342;8.802;2022-09-03T06:28:54;15.50;99.90
49465;DHT22;35358;49.342;8.802;2022-09-03T06:31:21;15.60;99.90
49465;DHT22;35358;49.342;8.802;2022-09-03T06:33:48;15.60;99.90
49465;DHT22;35358;49.342;8.802;2022-09-03T06:36:16;15.70;99.90
49465;DHT22;35358;49.342;8.802;2022-09-03T06:38:45;15.70;99.90
49465;DHT22;35358;49.342;8.802;2022-09-03T06:41:15;15.70;99.90
49465;DHT22;35358;49.342;8.802;2022-09-03T06:43:48;15.80;99.90
49465;DHT22;35358;49.342;8.802;2022-09-03T06:46:18;15.80;99.90
49465;DHT22;35358;49.342;8.802;2022-09-03T06:48:45;15.70;99.90
49465;DHT22;35358;49.342;8.802;2022-09-03T06:51:19;15.60;99.90
49465;DHT22;35358;49.342;8.802;2022-09-03T06:53:48;15.70;99.90
49465;DHT22;35358;49.342;8.802;2022-09-03T06:56:17;15.70;99.90
49465;DHT22;35358;49.342;8.802;2022-09-03T06:58:45;15.60;99.90
49465;DHT22;35358;49.342;8.802;2022-09-03T07:03:41;15.40;99.90
49465;DHT22;35358;49.342;8.802;2022-09-03T07:06:14;15.40;99.90
49465;DHT22;35358;49.342;8.802;2022-09-03T07:08:41;15.50;99.90
49465;DHT22;35358;49.342;8.802;2022-09-03T07:11:15;15.50;99.90
49465;DHT22;35358;49.342;8.802;2022-09-03T07:13:44;15.50;99.90
49465;DHT22;35358;49.342;8.802;2022-09-03T07:16:11;15.60;99.90
49465;DHT22;35358;49.342;8.802;2022-09-03T07:18:37;15.60;99.90
49465;DHT22;35358;49.342;8.802;2022-09-03T07:21:08;15.60;99.90
49465;DHT22;35358;49.342;8.802;2022-09-03T07:23:38;15.50;99.90
49465;DHT22;35358;49.342;8.802;2022-09-03T07:26:07;15.40;99.90
49465;DHT22;35358;49.342;8.802;2022-09-03T07:28:35;15.40;99.90
49465;DHT22;35358;49.342;8.802;2022-09-03T07:31:13;15.30;99.90
49465;DHT22;35358;49.342;8.802;2022-09-03T07:33:42;15.20;99.90
49465;DHT22;35358;49.342;8.802;2022-09-03T07:36:11;15.20;99.90
49465;DHT22;35358;49.342;8.802;2022-09-03T07:38:43;15.20;99.90
49465;DHT22;35358;49.342;8.802;2022-09-03T07:41:15;15.20;99.90
49465;DHT22;35358;49.342;8.802;2022-09-03T07:43:45;15.30;99.90
49465;DHT22;35358;49.342;8.802;2022-09-03T07:46:16;15.40;99.90
49465;DHT22;35358;49.342;8.802;2022-09-03T07:48:56;15.40;99.90
49465;DHT22;35358;49.342;8.802;2022-09-03T07:51:26;15.40;99.90
49465;DHT22;35358;49.342;8.802;2022-09-03T07:53:57;15.40;99.90
49465;DHT22;35358;49.342;8.802;2022-09-03T07:56:24;15.40;99.90
49465;DHT22;35358;49.342;8.802;2022-09-03T07:58:52;15.40;99.90
49465;DHT22;35358;49.342;8.802;2022-09-03T08:01:25;15.50;99.90
49465;DHT22;35358;49.342;8.802;2022-09-03T08:03:52;15.60;99.90
49465;DHT22;35358;49.342;8.802;2022-09-03T08:06:20;15.60;99.90
49465;DHT22;35358;49.342;8.802;2022-09-03T08:08:47;15.50;99.90
49465;DHT22;35358;49.342;8.802;2022-09-03T08:11:14;15.40;99.90
49465;DHT22;35358;49.342;8.802;2022-09-03T08:13:42;15.30;99.90
49465;DHT22;35358;49.342;8.802;2022-09-03T08:16:12;15.30;99.90
49465;DHT22;35358;49.342;8.802;2022-09-03T08:18:41;15.20;99.90
49465;DHT22;35358;49.342;8.802;2022-09-03T08:21:14;15.20;99.90
49465;DHT22;35358;49.342;8.802;2022-09-03T08:23:50;15.20;99.90
49465;DHT22;35358;49.342;8.802;2022-09-03T08:26:21;15.30;99.90
49465;DHT22;35358;49.342;8.802;2022-09-03T08:28:47;15.40;99.90
49465;DHT22;35358;49.342;8.802;2022-09-03T08:31:17;15.50;99.90
49465;DHT22;35358;49.342;8.802;2022-09-03T08:33:47;15.60;99.90
49465;DHT22;35358;49.342;8.802;2022-09-03T08:36:20;15.60;99.90
49465;DHT22;35358;49.342;8.802;2022-09-03T08:38:52;15.60;99.90
49465;DHT22;35358;49.342;8.802;2022-09-03T08:49:12;15.80;99.90
49465;DHT22;35358;49.342;8.802;2022-09-03T08:51:41;15.70;99.90
49465;DHT22;35358;49.342;8.802;2022-09-03T08:54:10;15.60;99.90
49465;DHT22;35358;49.342;8.802;2022-09-03T08:56:41;15.60;99.90
49465;DHT22;35358;49.342;8.802;2022-09-03T08:59:08;15.60;99.90
49465;DHT22;35358;49.342;8.802;2022-09-03T09:07:25;15.60;99.90
49465;DHT22;35358;49.342;8.802;2022-09-03T09:10:14;15.70;99.90
49465;DHT22;35358;49.342;8.802;2022-09-03T09:12:52;15.60;99.90
49465;DHT22;35358;49.342;8.802;2022-09-03T09:21:45;15.60;99.90
49465;DHT22;35358;49.342;8.802;2022-09-03T09:24:03;15.50;99.90
49465;DHT22;35358;49.342;8.802;2022-09-03T09:26:32;15.60;99.90
49465;DHT22;35358;49.342;8.802;2022-09-03T09:29:07;15.30;99.90
49465;DHT22;35358;49.342;8.802;2022-09-03T09:31:36;15.40;99.90
49465;DHT22;35358;49.342;8.802;2022-09-03T09:34:07;15.40;99.90
49465;DHT22;35358;49.342;8.802;2022-09-03T09:36:50;15.30;99.90
49465;DHT22;35358;49.342;8.802;2022-09-03T09:39:19;15.50;99.90
49465;DHT22;35358;49.342;8.802;2022-09-03T09:42:04;15.70;99.90
49465;DHT22;35358;49.342;8.802;2022-09-03T09:44:34;15.80;99.90
49465;DHT22;35358;49.342;8.802;2022-09-03T09:47:15;15.90;99.90
49465;DHT22;35358;49.342;8.802;2022-09-03T09:52:12;16.00;99.90
49465;DHT22;35358;49.342;8.802;2022-09-03T09:54:40;16.00;99.90
49465;DHT22;35358;49.342;8.802;2022-09-03T09:57:13;16.10;99.90
49465;DHT22;35358;49.342;8.802;2022-09-03T09:59:45;16.10;99.90
49465;DHT22;35358;49.342;8.802;2022-09-03T10:02:23;16.10;99.90
49465;DHT22;35358;49.342;8.802;2022-09-03T10:05:10;16.20;99.90
49465;DHT22;35358;49.342;8.802;2022-09-03T10:07:38;16.40;99.90
49465;DHT22;35358;49.342;8.802;2022-09-03T10:10:16;16.60;99.90
49465;DHT22;35358;49.342;8.802;2022-09-03T10:15:39;16.60;99.90
49465;DHT22;35358;49.342;8.802;2022-09-03T10:21:11;16.80;99.90
49465;DHT22;35358;49.342;8.802;2022-09-03T10:26:26;16.70;99.90
49465;DHT22;35358;49.342;8.802;2022-09-03T10:28:57;16.80;99.90
49465;DHT22;35358;49.342;8.802;2022-09-03T10:37:25;17.00;99.90
49465;DHT22;35358;49.342;8.802;2022-09-03T10:45:22;17.10;99.90
49465;DHT22;35358;49.342;8.802;2022-09-03T11:04:42;17.90;99.90
49465;DHT22;35358;49.342;8.802;2022-09-03T11:07:13;18.20;99.90
49465;DHT22;35358;49.342;8.802;2022-09-03T11:12:47;18.70;99.90
49465;DHT22;35358;49.342;8.802;2022-09-03T11:15:25;18.70;99.90
49465;DHT22;35358;49.342;8.802;2022-09-03T11:20:38;18.80;99.90
49465;DHT22;35358;49.342;8.802;2022-09-03T11:23:08;18.80;99.90
49465;DHT22;35358;49.342;8.802;2022-09-03T11:25:42;19.00;99.90
49465;DHT22;35358;49.342;8.802;2022-09-03T11:33:28;18.70;99.90
49465;DHT22;35358;49.342;8.802;2022-09-03T11:36:04;18.90;99.90
49465;DHT22;35358;49.342;8.802;2022-09-03T11:38:30;19.10;99.90
49465;DHT22;35358;49.342;8.802;2022-09-03T11:41:12;19.20;99.90
49465;DHT22;35358;49.342;8.802;2022-09-03T11:43:39;19.10;99.90
49465;DHT22;35358;49.342;8.802;2022-09-03T11:48:45;18.80;99.90
49465;DHT22;35358;49.342;8.802;2022-09-03T11:53:53;19.80;99.90
49465;DHT22;35358;49.342;8.802;2022-09-03T11:56:19;19.90;99.90
49465;DHT22;35358;49.342;8.802;2022-09-03T11:58:45;19.90;99.90
49465;DHT22;35358;49.342;8.802;2022-09-03T12:01:15;19.80;99.90
49465;DHT22;35358;49.342;8.802;2022-09-03T12:03:51;19.80;99.90
49465;DHT22;35358;49.342;8.802;2022-09-03T12:15:13;20.30;99.90
49465;DHT22;35358;49.342;8.802;2022-09-03T12:17:58;20.00;99.90
49465;DHT22;35358;49.342;8.802;2022-09-03T12:21:07;20.30;99.90
49465;DHT22;35358;49.342;8.802;2022-09-03T12:23:51;20.60;99.90
49465;DHT22;35358;49.342;8.802;2022-09-03T12:26:27;20.80;99.90
49465;DHT22;35358;49.342;8.802;2022-09-03T12:28:57;20.80;99.90
49465;DHT22;35358;49.342;8.802;2022-09-03T12:31:30;20.60;99.90
49465;DHT22;35358;49.342;8.802;2022-09-03T12:34:19;20.60;99.90
49465;DHT22;35358;49.342;8.802;2022-09-03T12:36:48;20.60;99.90
49465;DHT22;35358;49.342;8.802;2022-09-03T12:39:21;21.00;99.90
49465;DHT22;35358;49.342;8.802;2022-09-03T12:44:30;21.40;99.90
49465;DHT22;35358;49.342;8.802;2022-09-03T12:49:46;21.50;99.90
49465;DHT22;35358;49.342;8.802;2022-09-03T12:54:46;22.10;99.90
49465;DHT22;35358;49.342;8.802;2022-09-03T12:57:16;22.10;99.90
49465;DHT22;35358;49.342;8.802;2022-09-03T12:59:52;22.20;99.90
49465;DHT22;35358;49.342;8.802;2022-09-03T13:02:27;22.70;99.90
49465;DHT22;35358;49.342;8.802;2022-09-03T13:04:56;22.70;99.90
49465;DHT22;35358;49.342;8.802;2022-09-03T13:07:34;22.60;99.90
49465;DHT22;35358;49.342;8.802;2022-09-03T13:10:22;22.30;99.90
49465;DHT22;35358;49.342;8.802;2022-09-03T13:12:58;22.10;99.90
49465;DHT22;35358;49.342;8.802;2022-09-03T13:15:29;22.40;99.90
49465;DHT22;35358;49.342;8.802;2022-09-03T13:18:09;22.70;99.90
49465;DHT22;35358;49.342;8.802;2022-09-03T13:26:12;23.90;99.90
49465;DHT22;35358;49.342;8.802;2022-09-03T13:31:57;24.50;99.90
49465;DHT22;35358;49.342;8.802;2022-09-03T13:34:42;24.40;99.90
49465;DHT22;35358;49.342;8.802;2022-09-03T13:37:25;24.20;99.90
49465;DHT22;35358;49.342;8.802;2022-09-03T13:40:02;24.70;99.90
49465;DHT22;35358;49.342;8.802;2022-09-03T13:42:40;24.20;99.90
49465;DHT22;35358;49.342;8.802;2022-09-03T13:45:16;24.00;99.90
49465;DHT22;35358;49.342;8.802;2022-09-03T13:51:00;23.40;99.90
49465;DHT22;35358;49.342;8.802;2022-09-03T13:56:52;23.20;99.90
49465;DHT22;35358;49.342;8.802;2022-09-03T14:04:39;23.80;99.90
49465;DHT22;35358;49.342;8.802;2022-09-03T14:07:12;23.80;99.90
49465;DHT22;35358;49.342;8.802;2022-09-03T14:10:09;23.80;99.90
49465;DHT22;35358;49.342;8.802;2022-09-03T14:12:48;24.50;99.90
49465;DHT22;35358;49.342;8.802;2022-09-03T14:15:36;25.40;99.90
49465;DHT22;35358;49.342;8.802;2022-09-03T14:20:48;25.00;99.90
49465;DHT22;35358;49.342;8.802;2022-09-03T14:26:21;25.20;99.90
49465;DHT22;35358;49.342;8.802;2022-09-03T14:28:59;25.20;99.90
49465;DHT22;35358;49.342;8.802;2022-09-03T14:31:49;26.00;99.90
49465;DHT22;35358;49.342;8.802;2022-09-03T14:34:55;26.00;99.90
49465;DHT22;35358;49.342;8.802;2022-09-03T14:37:36;25.30;99.90
49465;DHT22;35358;49.342;8.802;2022-09-03T14:43:00;25.40;99.90
49465;DHT22;35358;49.342;8.802;2022-09-03T14:56:44;24.50;99.90
49465;DHT22;35358;49.342;8.802;2022-09-03T15:07:54;23.10;99.90
49465;DHT22;35358;49.342;8.802;2022-09-03T15:18:42;22.90;99.90
49465;DHT22;35358;49.342;8.802;2022-09-03T15:27:33;22.60;99.90
49465;DHT22;35358;49.342;8.802;2022-09-03T15:30:10;22.60;99.90
49465;DHT22;35358;49.342;8.802;2022-09-03T15:37:57;22.50;99.90
49465;DHT22;35358;49.342;8.802;2022-09-03T15:51:27;22.30;99.90
49465;DHT22;35358;49.342;8.802;2022-09-03T15:57:02;22.20;99.90
49465;DHT22;35358;49.342;8.802;2022-09-03T16:02:33;22.10;99.90
49465;DHT22;35358;49.342;8.802;2022-09-03T16:05:15;22.10;99.90
49465;DHT22;35358;49.342;8.802;2022-09-03T16:10:49;22.00;99.90
49465;DHT22;35358;49.342;8.802;2022-09-03T16:13:42;21.90;99.90
49465;DHT22;35358;49.342;8.802;2022-09-03T16:16:20;21.80;99.90
49465;DHT22;35358;49.342;8.802;2022-09-03T16:19:02;21.80;99.90
49465;DHT22;35358;49.342;8.802;2022-09-03T16:24:16;21.70;99.90
49465;DHT22;35358;49.342;8.802;2022-09-03T16:27:02;21.60;99.90
49465;DHT22;35358;49.342;8.802;2022-09-03T16:29:29;21.50;99.90
49465;DHT22;35358;49.342;8.802;2022-09-03T16:35:11;21.30;99.90
49465;DHT22;35358;49.342;8.802;2022-09-03T16:37:45;21.40;99.90
49465;DHT22;35358;49.342;8.802;2022-09-03T17:11:17;21.20;99.90
49465;DHT22;35358;49.342;8.802;2022-09-03T17:30:06;21.00;99.90
49465;DHT22;35358;49.342;8.802;2022-09-03T17:32:54;21.10;99.90
49465;DHT22;35358;49.342;8.802;2022-09-03T17:43:41;22.00;99.90
49465;DHT22;35358;49.342;8.802;2022-09-03T17:47:01;21.40;99.90
49465;DHT22;35358;49.342;8.802;2022-09-03T17:49:07;21.20;99.90
49465;DHT22;35358;49.342;8.802;2022-09-03T17:51:48;21.10;99.90
49465;DHT22;35358;49.342;8.802;2022-09-03T17:54:32;21.00;99.90
49465;DHT22;35358;49.342;8.802;2022-09-03T17:57:02;20.90;99.90
49465;DHT22;35358;49.342;8.802;2022-09-03T17:59:43;20.80;99.90
49465;DHT22;35358;49.342;8.802;2022-09-03T18:04:55;20.70;99.90
49465;DHT22;35358;49.342;8.802;2022-09-03T18:07:37;20.60;99.90
49465;DHT22;35358;49.342;8.802;2022-09-03T18:16:06;20.40;99.90
49465;DHT22;35358;49.342;8.802;2022-09-03T18:18:49;20.40;99.90
49465;DHT22;35358;49.342;8.802;2022-09-03T18:21:27;20.30;99.90
49465;DHT22;35358;49.342;8.802;2022-09-03T18:25:02;20.20;99.90
49465;DHT22;35358;49.342;8.802;2022-09-03T18:27:50;20.10;99.90
49465;DHT22;35358;49.342;8.802;2022-09-03T18:30:37;20.20;99.90
49465;DHT22;35358;49.342;8.802;2022-09-03T18:33:23;20.10;99.90
49465;DHT22;35358;49.342;8.802;2022-09-03T18:36:12;20.10;99.90
49465;DHT22;35358;49.342;8.802;2022-09-03T18:39:11;19.90;99.90
49465;DHT22;35358;49.342;8.802;2022-09-03T18:42:24;19.80;99.90
49465;DHT22;35358;49.342;8.802;2022-09-03T18:49:02;19.60;99.90
49465;DHT22;35358;49.342;8.802;2022-09-03T18:52:10;19.50;99.90
49465;DHT22;35358;49.342;8.802;2022-09-03T18:55:15;19.50;99.90
49465;DHT22;35358;49.342;8.802;2022-09-03T18:58:56;19.40;99.90
49465;DHT22;35358;49.342;8.802;2022-09-03T19:01:40;19.30;99.90
49465;DHT22;35358;49.342;8.802;2022-09-03T19:10:46;19.00;99.90
49465;DHT22;35358;49.342;8.802;2022-09-03T19:13:36;19.00;99.90
49465;DHT22;35358;49.342;8.802;2022-09-03T19:16:51;18.80;99.90
49465;DHT22;35358;49.342;8.802;2022-09-03T19:20:27;18.90;99.90
49465;DHT22;35358;49.342;8.802;2022-09-03T19:23:12;18.80;99.90
49465;DHT22;35358;49.342;8.802;2022-09-03T19:26:18;18.80;99.90
49465;DHT22;35358;49.342;8.802;2022-09-03T19:29:15;18.70;99.90
49465;DHT22;35358;49.342;8.802;2022-09-03T19:32:11;18.60;99.90
49465;DHT22;35358;49.342;8.802;2022-09-03T19:38:16;18.40;99.90
49465;DHT22;35358;49.342;8.802;2022-09-03T19:44:26;18.40;99.90
49465;DHT22;35358;49.342;8.802;2022-09-03T19:47:28;18.20;99.90
49465;DHT22;35358;49.342;8.802;2022-09-03T19:50:21;18.30;99.90
49465;DHT22;35358;49.342;8.802;2022-09-03T19:53:12;18.20;99.90
49465;DHT22;35358;49.342;8.802;2022-09-03T19:56:02;17.90;99.90
49465;DHT22;35358;49.342;8.802;2022-09-03T19:58:54;17.90;99.90
49465;DHT22;35358;49.342;8.802;2022-09-03T20:01:38;17.90;99.90
49465;DHT22;35358;49.342;8.802;2022-09-03T20:04:43;17.90;99.90
49465;DHT22;35358;49.342;8.802;2022-09-03T20:07:29;17.80;99.90
49465;DHT22;35358;49.342;8.802;2022-09-03T20:10:16;17.70;99.90
49465;DHT22;35358;49.342;8.802;2022-09-03T20:13:18;17.70;99.90
49465;DHT22;35358;49.342;8.802;2022-09-03T20:16:22;17.90;99.90
49465;DHT22;35358;49.342;8.802;2022-09-03T20:19:08;17.90;99.90
49465;DHT22;35358;49.342;8.802;2022-09-03T20:24:25;17.60;99.90
49465;DHT22;35358;49.342;8.802;2022-09-03T20:38:46;17.50;99.90
49465;DHT22;35358;49.342;8.802;2022-09-03T20:41:23;17.50;99.90
49465;DHT22;35358;49.342;8.802;2022-09-03T20:47:08;17.60;99.90
49465;DHT22;35358;49.342;8.802;2022-09-03T20:49:40;17.60;99.90
49465;DHT22;35358;49.342;8.802;2022-09-03T20:52:14;17.50;99.90
49465;DHT22;35358;49.342;8.802;2022-09-03T21:00:08;17.30;99.90
49465;DHT22;35358;49.342;8.802;2022-09-03T21:15:53;17.20;99.90
49465;DHT22;35358;49.342;8.802;2022-09-03T21:18:46;17.20;99.90
49465;DHT22;35358;49.342;8.802;2022-09-03T21:24:21;17.10;99.90
49465;DHT22;35358;49.342;8.802;2022-09-03T21:27:03;17.10;99.90
49465;DHT22;35358;49.342;8.802;2022-09-03T21:32:15;17.10;99.90
49465;DHT22;35358;49.342;8.802;2022-09-03T21:37:32;17.10;99.90
49465;DHT22;35358;49.342;8.802;2022-09-03T21:39:58;16.90;99.90
49465;DHT22;35358;49.342;8.802;2022-09-03T21:42:45;16.80;99.90
49465;DHT22;35358;49.342;8.802;2022-09-03T21:48:17;16.90;99.90
49465;DHT22;35358;49.342;8.802;2022-09-03T21:50:49;16.70;99.90
49465;DHT22;35358;49.342;8.802;2022-09-03T21:53:34;16.70;99.90
49465;DHT22;35358;49.342;8.802;2022-09-03T22:04:10;16.80;99.90
49465;DHT22;35358;49.342;8.802;2022-09-03T22:07:02;16.70;99.90
49465;DHT22;35358;49.342;8.802;2022-09-03T22:12:41;16.50;99.90
49465;DHT22;35358;49.342;8.802;2022-09-03T22:15:11;16.50;99.90
49465;DHT22;35358;49.342;8.802;2022-09-03T22:18:03;16.60;99.90
49465;DHT22;35358;49.342;8.802;2022-09-03T22:20:41;16.70;99.90
49465;DHT22;35358;49.342;8.802;2022-09-03T22:23:19;16.70;99.90
49465;DHT22;35358;49.342;8.802;2022-09-03T22:26:00;16.70;99.90
49465;DHT22;35358;49.342;8.802;2022-09-03T22:29:12;16.70;99.90
49465;DHT22;35358;49.342;8.802;2022-09-03T22:36:52;16.60;99.90
49465;DHT22;35358;49.342;8.802;2022-09-03T22:39:34;16.40;99.90
49465;DHT22;35358;49.342;8.802;2022-09-03T22:52:45;16.50;99.90
49465;DHT22;35358;49.342;8.802;2022-09-03T22:55:15;16.40;99.90
49465;DHT22;35358;49.342;8.802;2022-09-03T23:00:19;16.40;99.90
49465;DHT22;35358;49.342;8.802;2022-09-03T23:02:52;16.30;99.90
49465;DHT22;35358;49.342;8.802;2022-09-03T23:05:27;16.20;99.90
49465;DHT22;35358;49.342;8.802;2022-09-03T23:11:15;16.20;99.90